Station: PLZEN LINE, ICAO: LKLN, Synop: ,
Koordinaten: 49 41 N 013 16 E, Hoehe: 362m, Entfernung: 46.84km
2018/04/24 13:00
LKLN 241300Z AUTO 26007KT 200V310 9999 SCT055 19/07 Q1017


Station: GAERMERSDORF, ICAO: EDZH, Synop: ,
Koordinaten: 49 25 N 011 54 E, Hoehe: 419m, Entfernung: 64.52km


Station: Kuemmersruck, ICAO: ETGK, Synop: Synop: 10771,
Koordinaten: 4926'00''N 01154'00''E, Hoehe: 419m, Entfernung: 64.60km


Station: Grafenwoehr, ICAO: ETIC, Synop: Synop: 10687,
Koordinaten: 4942'00''N 01157'00''E, Hoehe: 415m, Entfernung: 69.46km
2018/04/24 13:56
ETIC 241356Z AUTO 27007KT 9999 SCT050 19/07 A3002 RMK AO2 SLP163 T01870068 $


Station: GRAFENWOHR (USA, ICAO: EDIC, Synop: ,
Koordinaten: 49 42 N 011 56 E, Hoehe: 415m, Entfernung: 70.51km


Station: Hohenfels, ICAO: ETIH, Synop: Synop: 10775,
Koordinaten: 4913'00''N 01150'00''E, Hoehe: 442m, Entfernung: 72.23km
2018/04/24 13:57
ETIH 241357Z AUTO 26010KT 9999 FEW050 20/08 A3005 RMK AO2 SLP168 T01950079 $


mehr Wetter
WetterInfo - adds.pl 2.6.003 DL3EL © 2004-2017 [376436]